sensor_id;sensor_type;location;lat;lon;timestamp;temperature;humidity
66257;DHT22;53049;43.446;3.698;2024-01-15T00:01:56;8.10;99.90
66257;DHT22;53049;43.446;3.698;2024-01-15T00:04:22;8.10;99.90
66257;DHT22;53049;43.446;3.698;2024-01-15T00:06:48;8.10;99.90
66257;DHT22;53049;43.446;3.698;2024-01-15T00:09:14;8.10;99.90
66257;DHT22;53049;43.446;3.698;2024-01-15T00:11:40;8.00;99.90
66257;DHT22;53049;43.446;3.698;2024-01-15T00:14:06;7.90;99.90
66257;DHT22;53049;43.446;3.698;2024-01-15T00:16:31;7.80;99.90
66257;DHT22;53049;43.446;3.698;2024-01-15T00:18:57;7.80;99.90
66257;DHT22;53049;43.446;3.698;2024-01-15T00:21:23;7.80;99.90
66257;DHT22;53049;43.446;3.698;2024-01-15T00:23:48;8.10;99.90
66257;DHT22;53049;43.446;3.698;2024-01-15T00:26:14;8.30;99.90
66257;DHT22;53049;43.446;3.698;2024-01-15T00:28:40;8.30;99.90
66257;DHT22;53049;43.446;3.698;2024-01-15T00:31:06;8.30;99.90
66257;DHT22;53049;43.446;3.698;2024-01-15T00:33:32;8.40;99.90
66257;DHT22;53049;43.446;3.698;2024-01-15T00:35:57;8.50;99.90
66257;DHT22;53049;43.446;3.698;2024-01-15T00:38:23;8.50;99.90
66257;DHT22;53049;43.446;3.698;2024-01-15T00:40:49;8.40;99.90
66257;DHT22;53049;43.446;3.698;2024-01-15T00:43:15;8.40;99.90
66257;DHT22;53049;43.446;3.698;2024-01-15T00:45:43;8.40;99.90
66257;DHT22;53049;43.446;3.698;2024-01-15T00:48:09;8.50;99.90
66257;DHT22;53049;43.446;3.698;2024-01-15T00:50:35;8.50;99.90
66257;DHT22;53049;43.446;3.698;2024-01-15T00:53:00;8.50;99.90
66257;DHT22;53049;43.446;3.698;2024-01-15T00:55:28;8.50;99.90
66257;DHT22;53049;43.446;3.698;2024-01-15T00:57:53;8.40;99.90
66257;DHT22;53049;43.446;3.698;2024-01-15T01:00:19;8.40;99.90
66257;DHT22;53049;43.446;3.698;2024-01-15T01:02:45;8.30;99.90
66257;DHT22;53049;43.446;3.698;2024-01-15T01:05:10;8.10;99.90
66257;DHT22;53049;43.446;3.698;2024-01-15T01:07:36;7.90;99.90
66257;DHT22;53049;43.446;3.698;2024-01-15T01:10:02;7.80;99.90
66257;DHT22;53049;43.446;3.698;2024-01-15T01:12:27;7.70;99.90
66257;DHT22;53049;43.446;3.698;2024-01-15T01:14:53;7.60;99.90
66257;DHT22;53049;43.446;3.698;2024-01-15T01:17:19;7.60;99.90
66257;DHT22;53049;43.446;3.698;2024-01-15T01:19:44;7.60;99.90
66257;DHT22;53049;43.446;3.698;2024-01-15T01:22:10;7.70;99.90
66257;DHT22;53049;43.446;3.698;2024-01-15T01:24:36;7.70;99.90
66257;DHT22;53049;43.446;3.698;2024-01-15T01:27:01;7.80;99.90
66257;DHT22;53049;43.446;3.698;2024-01-15T01:29:28;7.80;99.90
66257;DHT22;53049;43.446;3.698;2024-01-15T01:31:54;7.80;99.90
66257;DHT22;53049;43.446;3.698;2024-01-15T01:34:19;7.80;99.90
66257;DHT22;53049;43.446;3.698;2024-01-15T01:36:45;7.70;99.90
66257;DHT22;53049;43.446;3.698;2024-01-15T01:39:11;7.80;99.90
66257;DHT22;53049;43.446;3.698;2024-01-15T01:41:38;7.70;99.90
66257;DHT22;53049;43.446;3.698;2024-01-15T01:44:04;7.70;99.90
66257;DHT22;53049;43.446;3.698;2024-01-15T01:46:30;7.80;99.90
66257;DHT22;53049;43.446;3.698;2024-01-15T01:48:56;7.80;99.90
66257;DHT22;53049;43.446;3.698;2024-01-15T01:51:24;7.80;99.90
66257;DHT22;53049;43.446;3.698;2024-01-15T01:53:50;7.90;99.90
66257;DHT22;53049;43.446;3.698;2024-01-15T01:56:16;7.90;99.90
66257;DHT22;53049;43.446;3.698;2024-01-15T01:58:44;7.90;99.90
66257;DHT22;53049;43.446;3.698;2024-01-15T02:01:11;7.90;99.90
66257;DHT22;53049;43.446;3.698;2024-01-15T02:03:37;8.00;99.90
66257;DHT22;53049;43.446;3.698;2024-01-15T02:06:04;8.00;99.90
66257;DHT22;53049;43.446;3.698;2024-01-15T02:08:30;8.00;99.90
66257;DHT22;53049;43.446;3.698;2024-01-15T02:10:56;8.00;99.90
66257;DHT22;53049;43.446;3.698;2024-01-15T02:13:22;8.00;99.90
66257;DHT22;53049;43.446;3.698;2024-01-15T02:15:47;8.00;99.90
66257;DHT22;53049;43.446;3.698;2024-01-15T02:18:13;8.00;99.90
66257;DHT22;53049;43.446;3.698;2024-01-15T02:20:38;8.10;99.90
66257;DHT22;53049;43.446;3.698;2024-01-15T02:23:12;8.00;99.90
66257;DHT22;53049;43.446;3.698;2024-01-15T02:25:47;8.00;99.90
66257;DHT22;53049;43.446;3.698;2024-01-15T02:28:15;8.00;99.90
66257;DHT22;53049;43.446;3.698;2024-01-15T02:30:44;8.00;99.90
66257;DHT22;53049;43.446;3.698;2024-01-15T02:33:10;8.00;99.90
66257;DHT22;53049;43.446;3.698;2024-01-15T02:35:36;8.10;99.90
66257;DHT22;53049;43.446;3.698;2024-01-15T02:38:03;8.20;99.90
66257;DHT22;53049;43.446;3.698;2024-01-15T02:40:29;8.30;99.90
66257;DHT22;53049;43.446;3.698;2024-01-15T02:42:55;8.30;99.90
66257;DHT22;53049;43.446;3.698;2024-01-15T02:45:21;8.30;99.90
66257;DHT22;53049;43.446;3.698;2024-01-15T02:47:47;8.30;99.90
66257;DHT22;53049;43.446;3.698;2024-01-15T02:50:13;8.20;99.90
66257;DHT22;53049;43.446;3.698;2024-01-15T02:52:39;8.10;99.90
66257;DHT22;53049;43.446;3.698;2024-01-15T02:55:05;8.10;99.90
66257;DHT22;53049;43.446;3.698;2024-01-15T02:57:31;8.00;99.90
66257;DHT22;53049;43.446;3.698;2024-01-15T02:59:57;8.00;99.90
66257;DHT22;53049;43.446;3.698;2024-01-15T03:02:22;8.00;99.90
66257;DHT22;53049;43.446;3.698;2024-01-15T03:04:48;7.90;99.90
66257;DHT22;53049;43.446;3.698;2024-01-15T03:07:14;8.00;99.90
66257;DHT22;53049;43.446;3.698;2024-01-15T03:09:39;8.10;99.90
66257;DHT22;53049;43.446;3.698;2024-01-15T03:12:06;8.10;99.90
66257;DHT22;53049;43.446;3.698;2024-01-15T03:14:31;8.10;99.90
66257;DHT22;53049;43.446;3.698;2024-01-15T03:16:57;8.10;99.90
66257;DHT22;53049;43.446;3.698;2024-01-15T03:19:23;8.10;99.90
66257;DHT22;53049;43.446;3.698;2024-01-15T03:21:48;8.20;99.90
66257;DHT22;53049;43.446;3.698;2024-01-15T03:24:14;8.10;99.90
66257;DHT22;53049;43.446;3.698;2024-01-15T03:26:40;8.10;99.90
66257;DHT22;53049;43.446;3.698;2024-01-15T03:29:06;8.00;99.90
66257;DHT22;53049;43.446;3.698;2024-01-15T03:31:32;8.10;99.90
66257;DHT22;53049;43.446;3.698;2024-01-15T03:33:58;8.10;99.90
66257;DHT22;53049;43.446;3.698;2024-01-15T03:36:24;8.10;99.90
66257;DHT22;53049;43.446;3.698;2024-01-15T03:38:49;8.10;99.90
66257;DHT22;53049;43.446;3.698;2024-01-15T03:41:15;8.10;99.90
66257;DHT22;53049;43.446;3.698;2024-01-15T03:43:40;8.10;99.90
66257;DHT22;53049;43.446;3.698;2024-01-15T03:46:07;8.10;99.90
66257;DHT22;53049;43.446;3.698;2024-01-15T03:48:32;8.10;99.90
66257;DHT22;53049;43.446;3.698;2024-01-15T03:50:58;8.10;99.90
66257;DHT22;53049;43.446;3.698;2024-01-15T03:53:23;8.10;99.90
66257;DHT22;53049;43.446;3.698;2024-01-15T03:55:50;8.10;99.90
66257;DHT22;53049;43.446;3.698;2024-01-15T03:58:16;8.10;99.90
66257;DHT22;53049;43.446;3.698;2024-01-15T04:00:42;8.10;99.90
66257;DHT22;53049;43.446;3.698;2024-01-15T04:03:08;8.10;99.90
66257;DHT22;53049;43.446;3.698;2024-01-15T04:05:34;8.10;99.90
66257;DHT22;53049;43.446;3.698;2024-01-15T04:08:00;8.00;99.90
66257;DHT22;53049;43.446;3.698;2024-01-15T04:10:26;8.10;99.90
66257;DHT22;53049;43.446;3.698;2024-01-15T04:12:52;8.10;99.90
66257;DHT22;53049;43.446;3.698;2024-01-15T04:15:17;8.10;99.90
66257;DHT22;53049;43.446;3.698;2024-01-15T04:17:43;8.00;99.90
66257;DHT22;53049;43.446;3.698;2024-01-15T04:20:09;8.00;99.90
66257;DHT22;53049;43.446;3.698;2024-01-15T04:22:37;8.10;99.90
66257;DHT22;53049;43.446;3.698;2024-01-15T04:25:03;8.20;99.90
66257;DHT22;53049;43.446;3.698;2024-01-15T04:27:29;8.20;99.90
66257;DHT22;53049;43.446;3.698;2024-01-15T04:29:54;8.20;99.90
66257;DHT22;53049;43.446;3.698;2024-01-15T04:32:20;8.30;99.90
66257;DHT22;53049;43.446;3.698;2024-01-15T04:34:46;8.30;99.90
66257;DHT22;53049;43.446;3.698;2024-01-15T04:37:13;8.30;99.90
66257;DHT22;53049;43.446;3.698;2024-01-15T04:39:39;8.30;99.90
66257;DHT22;53049;43.446;3.698;2024-01-15T04:42:04;8.40;99.90
66257;DHT22;53049;43.446;3.698;2024-01-15T04:44:30;8.40;99.90
66257;DHT22;53049;43.446;3.698;2024-01-15T04:46:56;8.40;99.90
66257;DHT22;53049;43.446;3.698;2024-01-15T04:49:21;8.40;99.90
66257;DHT22;53049;43.446;3.698;2024-01-15T04:51:47;8.40;99.90
66257;DHT22;53049;43.446;3.698;2024-01-15T04:54:13;8.30;99.90
66257;DHT22;53049;43.446;3.698;2024-01-15T04:56:43;8.40;99.90
66257;DHT22;53049;43.446;3.698;2024-01-15T04:59:09;8.40;99.90
66257;DHT22;53049;43.446;3.698;2024-01-15T05:01:35;8.50;99.90
66257;DHT22;53049;43.446;3.698;2024-01-15T05:04:01;8.60;99.90
66257;DHT22;53049;43.446;3.698;2024-01-15T05:06:26;8.60;99.90
66257;DHT22;53049;43.446;3.698;2024-01-15T05:08:52;8.60;99.90
66257;DHT22;53049;43.446;3.698;2024-01-15T05:11:18;8.60;99.90
66257;DHT22;53049;43.446;3.698;2024-01-15T05:13:44;8.60;99.90
66257;DHT22;53049;43.446;3.698;2024-01-15T05:16:09;8.70;99.90
66257;DHT22;53049;43.446;3.698;2024-01-15T05:18:35;8.60;99.90
66257;DHT22;53049;43.446;3.698;2024-01-15T05:21:03;8.60;99.90
66257;DHT22;53049;43.446;3.698;2024-01-15T05:23:29;8.50;99.90
66257;DHT22;53049;43.446;3.698;2024-01-15T05:25:54;8.50;99.90
66257;DHT22;53049;43.446;3.698;2024-01-15T05:28:20;8.50;99.90
66257;DHT22;53049;43.446;3.698;2024-01-15T05:30:46;8.50;99.90
66257;DHT22;53049;43.446;3.698;2024-01-15T05:33:12;8.40;99.90
66257;DHT22;53049;43.446;3.698;2024-01-15T05:35:38;8.40;99.90
66257;DHT22;53049;43.446;3.698;2024-01-15T05:38:03;8.50;99.90
66257;DHT22;53049;43.446;3.698;2024-01-15T05:40:29;8.50;99.90
66257;DHT22;53049;43.446;3.698;2024-01-15T05:42:55;8.50;99.90
66257;DHT22;53049;43.446;3.698;2024-01-15T05:45:20;8.50;99.90
66257;DHT22;53049;43.446;3.698;2024-01-15T05:47:46;8.40;99.90
66257;DHT22;53049;43.446;3.698;2024-01-15T05:50:12;8.50;99.90
66257;DHT22;53049;43.446;3.698;2024-01-15T05:52:37;8.60;99.90
66257;DHT22;53049;43.446;3.698;2024-01-15T05:55:04;8.60;99.90
66257;DHT22;53049;43.446;3.698;2024-01-15T05:57:30;8.60;99.90
66257;DHT22;53049;43.446;3.698;2024-01-15T05:59:56;8.60;99.90
66257;DHT22;53049;43.446;3.698;2024-01-15T06:02:22;8.50;99.90
66257;DHT22;53049;43.446;3.698;2024-01-15T06:04:47;8.60;99.90
66257;DHT22;53049;43.446;3.698;2024-01-15T06:07:13;8.60;99.90
66257;DHT22;53049;43.446;3.698;2024-01-15T06:09:39;8.60;99.90
66257;DHT22;53049;43.446;3.698;2024-01-15T06:12:06;8.50;99.90
66257;DHT22;53049;43.446;3.698;2024-01-15T06:14:32;8.50;99.90
66257;DHT22;53049;43.446;3.698;2024-01-15T06:16:58;8.60;99.90
66257;DHT22;53049;43.446;3.698;2024-01-15T06:19:23;8.50;99.90
66257;DHT22;53049;43.446;3.698;2024-01-15T06:21:49;8.50;99.90
66257;DHT22;53049;43.446;3.698;2024-01-15T06:24:15;8.40;99.90
66257;DHT22;53049;43.446;3.698;2024-01-15T06:26:43;8.40;99.90
66257;DHT22;53049;43.446;3.698;2024-01-15T06:29:09;8.50;99.90
66257;DHT22;53049;43.446;3.698;2024-01-15T06:31:34;8.40;99.90
66257;DHT22;53049;43.446;3.698;2024-01-15T06:34:00;8.40;99.90
66257;DHT22;53049;43.446;3.698;2024-01-15T06:36:25;8.40;99.90
66257;DHT22;53049;43.446;3.698;2024-01-15T06:38:51;8.40;99.90
66257;DHT22;53049;43.446;3.698;2024-01-15T06:41:17;8.40;99.90
66257;DHT22;53049;43.446;3.698;2024-01-15T06:43:42;8.50;99.90
66257;DHT22;53049;43.446;3.698;2024-01-15T06:46:08;8.40;99.90
66257;DHT22;53049;43.446;3.698;2024-01-15T06:48:34;8.40;99.90
66257;DHT22;53049;43.446;3.698;2024-01-15T06:51:00;8.40;99.90
66257;DHT22;53049;43.446;3.698;2024-01-15T06:53:25;8.40;99.90
66257;DHT22;53049;43.446;3.698;2024-01-15T06:55:51;8.40;99.90
66257;DHT22;53049;43.446;3.698;2024-01-15T06:58:17;8.40;99.90
66257;DHT22;53049;43.446;3.698;2024-01-15T07:00:42;8.40;99.90
66257;DHT22;53049;43.446;3.698;2024-01-15T07:03:08;8.50;99.90
66257;DHT22;53049;43.446;3.698;2024-01-15T07:05:34;8.40;99.90
66257;DHT22;53049;43.446;3.698;2024-01-15T07:07:59;8.40;99.90
66257;DHT22;53049;43.446;3.698;2024-01-15T07:10:25;8.30;99.90
66257;DHT22;53049;43.446;3.698;2024-01-15T07:12:51;8.40;99.90
66257;DHT22;53049;43.446;3.698;2024-01-15T07:15:17;8.30;99.90
66257;DHT22;53049;43.446;3.698;2024-01-15T07:17:42;8.30;99.90
66257;DHT22;53049;43.446;3.698;2024-01-15T07:20:09;8.30;99.90
66257;DHT22;53049;43.446;3.698;2024-01-15T07:22:38;8.20;99.90
66257;DHT22;53049;43.446;3.698;2024-01-15T07:25:04;8.20;99.90
66257;DHT22;53049;43.446;3.698;2024-01-15T07:27:31;8.20;99.90
66257;DHT22;53049;43.446;3.698;2024-01-15T07:29:57;8.20;99.90
66257;DHT22;53049;43.446;3.698;2024-01-15T07:32:23;8.20;99.90
66257;DHT22;53049;43.446;3.698;2024-01-15T07:34:49;8.20;99.90
66257;DHT22;53049;43.446;3.698;2024-01-15T07:37:15;8.20;99.90
66257;DHT22;53049;43.446;3.698;2024-01-15T07:39:41;8.20;99.90
66257;DHT22;53049;43.446;3.698;2024-01-15T07:42:06;8.10;99.90
66257;DHT22;53049;43.446;3.698;2024-01-15T07:44:33;8.10;99.90
66257;DHT22;53049;43.446;3.698;2024-01-15T07:46:58;8.10;99.90
66257;DHT22;53049;43.446;3.698;2024-01-15T07:49:24;8.00;99.90
66257;DHT22;53049;43.446;3.698;2024-01-15T07:51:50;7.90;99.90
66257;DHT22;53049;43.446;3.698;2024-01-15T07:54:16;7.80;99.90
66257;DHT22;53049;43.446;3.698;2024-01-15T07:56:59;7.80;99.90
66257;DHT22;53049;43.446;3.698;2024-01-15T07:59:26;7.80;99.90
66257;DHT22;53049;43.446;3.698;2024-01-15T08:01:52;7.70;99.90
66257;DHT22;53049;43.446;3.698;2024-01-15T08:04:19;7.60;99.90
66257;DHT22;53049;43.446;3.698;2024-01-15T08:06:45;7.50;99.90
66257;DHT22;53049;43.446;3.698;2024-01-15T08:09:11;7.40;99.90
66257;DHT22;53049;43.446;3.698;2024-01-15T08:11:42;7.30;99.90
66257;DHT22;53049;43.446;3.698;2024-01-15T08:14:08;7.40;99.90
66257;DHT22;53049;43.446;3.698;2024-01-15T08:16:35;7.40;99.90
66257;DHT22;53049;43.446;3.698;2024-01-15T08:19:00;7.40;99.90
66257;DHT22;53049;43.446;3.698;2024-01-15T08:21:26;7.30;99.90
66257;DHT22;53049;43.446;3.698;2024-01-15T08:23:56;7.40;99.90
66257;DHT22;53049;43.446;3.698;2024-01-15T08:26:22;7.50;99.90
66257;DHT22;53049;43.446;3.698;2024-01-15T08:28:48;7.60;99.90
66257;DHT22;53049;43.446;3.698;2024-01-15T08:31:13;7.60;99.90
66257;DHT22;53049;43.446;3.698;2024-01-15T08:33:39;7.50;99.90
66257;DHT22;53049;43.446;3.698;2024-01-15T08:36:05;7.50;99.90
66257;DHT22;53049;43.446;3.698;2024-01-15T08:38:31;7.50;99.90
66257;DHT22;53049;43.446;3.698;2024-01-15T08:40:57;7.50;99.90
66257;DHT22;53049;43.446;3.698;2024-01-15T08:43:24;7.50;99.90
66257;DHT22;53049;43.446;3.698;2024-01-15T08:45:50;7.40;99.90
66257;DHT22;53049;43.446;3.698;2024-01-15T08:48:16;7.40;99.90
66257;DHT22;53049;43.446;3.698;2024-01-15T08:50:42;7.40;99.90
66257;DHT22;53049;43.446;3.698;2024-01-15T08:53:12;7.50;99.90
66257;DHT22;53049;43.446;3.698;2024-01-15T08:55:37;7.60;99.90
66257;DHT22;53049;43.446;3.698;2024-01-15T08:58:03;7.60;99.90
66257;DHT22;53049;43.446;3.698;2024-01-15T09:00:30;7.80;99.90
66257;DHT22;53049;43.446;3.698;2024-01-15T09:02:56;7.90;99.90
66257;DHT22;53049;43.446;3.698;2024-01-15T09:05:22;8.00;99.90
66257;DHT22;53049;43.446;3.698;2024-01-15T09:07:48;8.00;99.90
66257;DHT22;53049;43.446;3.698;2024-01-15T09:10:14;7.90;99.90
66257;DHT22;53049;43.446;3.698;2024-01-15T09:12:40;7.90;99.90
66257;DHT22;53049;43.446;3.698;2024-01-15T09:15:06;7.90;99.90
66257;DHT22;53049;43.446;3.698;2024-01-15T09:17:32;7.90;99.90
66257;DHT22;53049;43.446;3.698;2024-01-15T09:19:58;7.90;99.90
66257;DHT22;53049;43.446;3.698;2024-01-15T09:22:24;7.90;99.90
66257;DHT22;53049;43.446;3.698;2024-01-15T09:24:49;8.00;99.90
66257;DHT22;53049;43.446;3.698;2024-01-15T09:27:15;8.10;99.90
66257;DHT22;53049;43.446;3.698;2024-01-15T09:29:41;8.20;99.90
66257;DHT22;53049;43.446;3.698;2024-01-15T09:32:08;8.20;99.90
66257;DHT22;53049;43.446;3.698;2024-01-15T09:34:34;8.30;99.90
66257;DHT22;53049;43.446;3.698;2024-01-15T09:37:00;8.30;99.90
66257;DHT22;53049;43.446;3.698;2024-01-15T09:39:27;8.30;99.90
66257;DHT22;53049;43.446;3.698;2024-01-15T09:41:54;8.50;99.90
66257;DHT22;53049;43.446;3.698;2024-01-15T09:44:20;8.60;99.90
66257;DHT22;53049;43.446;3.698;2024-01-15T09:46:49;8.50;99.90
66257;DHT22;53049;43.446;3.698;2024-01-15T09:49:18;8.80;99.90
66257;DHT22;53049;43.446;3.698;2024-01-15T09:51:45;9.10;99.90
66257;DHT22;53049;43.446;3.698;2024-01-15T09:54:11;9.30;99.90
66257;DHT22;53049;43.446;3.698;2024-01-15T09:56:39;9.60;99.90
66257;DHT22;53049;43.446;3.698;2024-01-15T09:59:05;9.90;99.90
66257;DHT22;53049;43.446;3.698;2024-01-15T10:01:36;10.20;99.90
66257;DHT22;53049;43.446;3.698;2024-01-15T10:04:02;10.40;99.90
66257;DHT22;53049;43.446;3.698;2024-01-15T10:06:28;10.30;99.90
66257;DHT22;53049;43.446;3.698;2024-01-15T10:08:54;10.20;99.90
66257;DHT22;53049;43.446;3.698;2024-01-15T10:11:22;10.50;99.90
66257;DHT22;53049;43.446;3.698;2024-01-15T10:13:47;10.40;99.90
66257;DHT22;53049;43.446;3.698;2024-01-15T10:16:17;10.40;99.90
66257;DHT22;53049;43.446;3.698;2024-01-15T10:18:43;10.50;99.90
66257;DHT22;53049;43.446;3.698;2024-01-15T10:21:08;10.40;99.90
66257;DHT22;53049;43.446;3.698;2024-01-15T10:23:34;10.50;99.90
66257;DHT22;53049;43.446;3.698;2024-01-15T10:26:02;10.60;99.90
66257;DHT22;53049;43.446;3.698;2024-01-15T10:28:28;10.60;99.90
66257;DHT22;53049;43.446;3.698;2024-01-15T10:30:57;10.60;99.90
66257;DHT22;53049;43.446;3.698;2024-01-15T10:33:23;10.70;99.90
66257;DHT22;53049;43.446;3.698;2024-01-15T10:35:59;10.80;99.90
66257;DHT22;53049;43.446;3.698;2024-01-15T10:38:25;10.80;99.90
66257;DHT22;53049;43.446;3.698;2024-01-15T10:40:52;10.80;99.90
66257;DHT22;53049;43.446;3.698;2024-01-15T10:43:18;10.80;99.90
66257;DHT22;53049;43.446;3.698;2024-01-15T10:45:48;10.60;99.90
66257;DHT22;53049;43.446;3.698;2024-01-15T10:48:17;10.50;99.90
66257;DHT22;53049;43.446;3.698;2024-01-15T10:50:44;10.50;99.90
66257;DHT22;53049;43.446;3.698;2024-01-15T10:53:12;10.50;99.90
66257;DHT22;53049;43.446;3.698;2024-01-15T10:55:38;10.40;99.90
66257;DHT22;53049;43.446;3.698;2024-01-15T10:58:07;10.50;99.90
66257;DHT22;53049;43.446;3.698;2024-01-15T11:00:36;10.60;99.90
66257;DHT22;53049;43.446;3.698;2024-01-15T11:03:06;10.70;99.90
66257;DHT22;53049;43.446;3.698;2024-01-15T11:05:39;10.90;99.90
66257;DHT22;53049;43.446;3.698;2024-01-15T11:08:07;11.00;99.90
66257;DHT22;53049;43.446;3.698;2024-01-15T11:18:36;11.00;99.90
66257;DHT22;53049;43.446;3.698;2024-01-15T11:26:45;10.90;99.90
66257;DHT22;53049;43.446;3.698;2024-01-15T11:34:21;11.00;99.90
66257;DHT22;53049;43.446;3.698;2024-01-15T11:37:07;11.00;99.90
66257;DHT22;53049;43.446;3.698;2024-01-15T11:42:00;10.90;99.90
66257;DHT22;53049;43.446;3.698;2024-01-15T11:44:27;10.80;99.90
66257;DHT22;53049;43.446;3.698;2024-01-15T11:47:03;10.80;99.90
66257;DHT22;53049;43.446;3.698;2024-01-15T11:52:17;10.80;99.90
66257;DHT22;53049;43.446;3.698;2024-01-15T11:55:01;10.90;99.90
66257;DHT22;53049;43.446;3.698;2024-01-15T11:57:52;11.00;99.90
66257;DHT22;53049;43.446;3.698;2024-01-15T12:00:18;11.00;99.90
66257;DHT22;53049;43.446;3.698;2024-01-15T12:02:45;11.00;99.90
66257;DHT22;53049;43.446;3.698;2024-01-15T12:05:14;11.10;99.90
66257;DHT22;53049;43.446;3.698;2024-01-15T12:07:41;11.00;99.90
66257;DHT22;53049;43.446;3.698;2024-01-15T12:15:09;11.00;99.90
66257;DHT22;53049;43.446;3.698;2024-01-15T12:17:35;11.20;99.90
66257;DHT22;53049;43.446;3.698;2024-01-15T12:20:04;11.30;99.90
66257;DHT22;53049;43.446;3.698;2024-01-15T12:22:30;11.40;99.90
66257;DHT22;53049;43.446;3.698;2024-01-15T12:24:55;11.50;99.90
66257;DHT22;53049;43.446;3.698;2024-01-15T12:27:23;11.50;99.90
66257;DHT22;53049;43.446;3.698;2024-01-15T12:29:49;11.50;99.90
66257;DHT22;53049;43.446;3.698;2024-01-15T12:32:15;11.50;99.90
66257;DHT22;53049;43.446;3.698;2024-01-15T12:34:41;11.50;99.90
66257;DHT22;53049;43.446;3.698;2024-01-15T12:37:09;11.60;99.90
66257;DHT22;53049;43.446;3.698;2024-01-15T12:39:36;11.70;99.90
66257;DHT22;53049;43.446;3.698;2024-01-15T12:42:02;11.70;99.90
66257;DHT22;53049;43.446;3.698;2024-01-15T12:44:29;11.80;99.90
66257;DHT22;53049;43.446;3.698;2024-01-15T12:46:55;11.80;99.90
66257;DHT22;53049;43.446;3.698;2024-01-15T12:49:21;11.80;99.90
66257;DHT22;53049;43.446;3.698;2024-01-15T12:51:57;11.90;99.90
66257;DHT22;53049;43.446;3.698;2024-01-15T12:54:23;11.90;99.90
66257;DHT22;53049;43.446;3.698;2024-01-15T12:56:50;11.90;99.90
66257;DHT22;53049;43.446;3.698;2024-01-15T12:59:16;11.90;99.90
66257;DHT22;53049;43.446;3.698;2024-01-15T13:01:41;11.80;99.90
66257;DHT22;53049;43.446;3.698;2024-01-15T13:04:07;11.80;99.90
66257;DHT22;53049;43.446;3.698;2024-01-15T13:06:36;11.90;99.90
66257;DHT22;53049;43.446;3.698;2024-01-15T13:09:03;12.10;99.90
66257;DHT22;53049;43.446;3.698;2024-01-15T13:11:32;12.10;99.90
66257;DHT22;53049;43.446;3.698;2024-01-15T13:13:58;12.10;99.90
66257;DHT22;53049;43.446;3.698;2024-01-15T13:16:24;12.20;99.90
66257;DHT22;53049;43.446;3.698;2024-01-15T13:18:52;12.30;99.90
66257;DHT22;53049;43.446;3.698;2024-01-15T13:21:18;12.30;99.90
66257;DHT22;53049;43.446;3.698;2024-01-15T13:23:44;12.40;99.90
66257;DHT22;53049;43.446;3.698;2024-01-15T13:26:09;12.40;99.90
66257;DHT22;53049;43.446;3.698;2024-01-15T13:28:35;12.40;99.90
66257;DHT22;53049;43.446;3.698;2024-01-15T13:31:01;12.40;99.90
66257;DHT22;53049;43.446;3.698;2024-01-15T13:33:27;12.40;99.90
66257;DHT22;53049;43.446;3.698;2024-01-15T13:35:53;12.50;99.90
66257;DHT22;53049;43.446;3.698;2024-01-15T13:38:19;12.50;99.90
66257;DHT22;53049;43.446;3.698;2024-01-15T13:40:44;12.50;99.90
66257;DHT22;53049;43.446;3.698;2024-01-15T13:43:11;12.60;99.90
66257;DHT22;53049;43.446;3.698;2024-01-15T13:45:37;12.70;99.90
66257;DHT22;53049;43.446;3.698;2024-01-15T13:48:03;12.70;99.90
66257;DHT22;53049;43.446;3.698;2024-01-15T13:50:36;12.80;99.90
66257;DHT22;53049;43.446;3.698;2024-01-15T13:53:03;13.00;99.90
66257;DHT22;53049;43.446;3.698;2024-01-15T13:55:29;13.00;99.90
66257;DHT22;53049;43.446;3.698;2024-01-15T13:57:55;13.20;99.90
66257;DHT22;53049;43.446;3.698;2024-01-15T14:00:21;13.30;99.90
66257;DHT22;53049;43.446;3.698;2024-01-15T14:05:13;13.40;99.90
66257;DHT22;53049;43.446;3.698;2024-01-15T14:07:39;13.70;99.90
66257;DHT22;53049;43.446;3.698;2024-01-15T14:10:05;13.80;99.90
66257;DHT22;53049;43.446;3.698;2024-01-15T14:12:33;13.70;99.90
66257;DHT22;53049;43.446;3.698;2024-01-15T14:15:00;13.70;99.90
66257;DHT22;53049;43.446;3.698;2024-01-15T14:17:27;13.70;99.90
66257;DHT22;53049;43.446;3.698;2024-01-15T14:19:52;13.60;99.90
66257;DHT22;53049;43.446;3.698;2024-01-15T14:22:18;13.70;99.90
66257;DHT22;53049;43.446;3.698;2024-01-15T14:24:44;13.70;99.90
66257;DHT22;53049;43.446;3.698;2024-01-15T14:27:10;13.60;99.90
66257;DHT22;53049;43.446;3.698;2024-01-15T14:29:35;13.70;99.90
66257;DHT22;53049;43.446;3.698;2024-01-15T14:32:02;13.70;99.90
66257;DHT22;53049;43.446;3.698;2024-01-15T14:34:28;13.70;99.90
66257;DHT22;53049;43.446;3.698;2024-01-15T14:36:53;13.60;99.90
66257;DHT22;53049;43.446;3.698;2024-01-15T14:39:21;13.60;99.90
66257;DHT22;53049;43.446;3.698;2024-01-15T14:41:47;13.60;99.90
66257;DHT22;53049;43.446;3.698;2024-01-15T14:44:13;13.60;99.90
66257;DHT22;53049;43.446;3.698;2024-01-15T14:46:39;13.60;99.90
66257;DHT22;53049;43.446;3.698;2024-01-15T14:49:05;13.50;99.90
66257;DHT22;53049;43.446;3.698;2024-01-15T14:51:30;13.60;99.90
66257;DHT22;53049;43.446;3.698;2024-01-15T14:53:56;13.70;99.90
66257;DHT22;53049;43.446;3.698;2024-01-15T14:56:22;13.70;99.90
66257;DHT22;53049;43.446;3.698;2024-01-15T14:58:47;13.70;99.90
66257;DHT22;53049;43.446;3.698;2024-01-15T15:01:13;13.70;99.90
66257;DHT22;53049;43.446;3.698;2024-01-15T15:03:39;13.70;99.90
66257;DHT22;53049;43.446;3.698;2024-01-15T15:06:05;13.80;99.90
66257;DHT22;53049;43.446;3.698;2024-01-15T15:08:33;13.80;99.90
66257;DHT22;53049;43.446;3.698;2024-01-15T15:10:59;13.90;99.90
66257;DHT22;53049;43.446;3.698;2024-01-15T15:13:25;14.00;99.90
66257;DHT22;53049;43.446;3.698;2024-01-15T15:15:52;13.90;99.90
66257;DHT22;53049;43.446;3.698;2024-01-15T15:18:19;13.90;99.90
66257;DHT22;53049;43.446;3.698;2024-01-15T15:20:45;13.90;99.90
66257;DHT22;53049;43.446;3.698;2024-01-15T15:23:11;13.90;99.90
66257;DHT22;53049;43.446;3.698;2024-01-15T15:25:37;13.80;99.90
66257;DHT22;53049;43.446;3.698;2024-01-15T15:28:03;13.80;99.90
66257;DHT22;53049;43.446;3.698;2024-01-15T15:30:31;13.70;99.90
66257;DHT22;53049;43.446;3.698;2024-01-15T15:32:56;13.70;99.90
66257;DHT22;53049;43.446;3.698;2024-01-15T15:35:22;13.70;99.90
66257;DHT22;53049;43.446;3.698;2024-01-15T15:37:48;13.60;99.90
66257;DHT22;53049;43.446;3.698;2024-01-15T15:40:14;13.60;99.90
66257;DHT22;53049;43.446;3.698;2024-01-15T15:42:39;13.50;99.90
66257;DHT22;53049;43.446;3.698;2024-01-15T15:45:06;13.50;99.90
66257;DHT22;53049;43.446;3.698;2024-01-15T15:47:32;13.40;99.90
66257;DHT22;53049;43.446;3.698;2024-01-15T15:49:58;13.30;99.90
66257;DHT22;53049;43.446;3.698;2024-01-15T15:52:24;13.20;99.90
66257;DHT22;53049;43.446;3.698;2024-01-15T15:54:50;13.10;99.90
66257;DHT22;53049;43.446;3.698;2024-01-15T15:57:15;13.00;99.90
66257;DHT22;53049;43.446;3.698;2024-01-15T15:59:42;13.00;99.90
66257;DHT22;53049;43.446;3.698;2024-01-15T16:02:07;12.90;99.90
66257;DHT22;53049;43.446;3.698;2024-01-15T16:04:33;12.80;99.90
66257;DHT22;53049;43.446;3.698;2024-01-15T16:06:59;12.70;99.90